sensor_id;sensor_type;location;lat;lon;timestamp;P1;durP1;ratioP1;P2;durP2;ratioP2
86412;SDS011;77065;42.672;23.356;2024-03-08T00:00:58;9.95;;;4.88;;
86412;SDS011;77065;42.672;23.356;2024-03-08T00:03:24;11.43;;;5.90;;
86412;SDS011;77065;42.672;23.356;2024-03-08T00:05:49;10.52;;;5.20;;
86412;SDS011;77065;42.672;23.356;2024-03-08T00:08:14;9.48;;;4.85;;
86412;SDS011;77065;42.672;23.356;2024-03-08T00:10:40;11.73;;;5.22;;
86412;SDS011;77065;42.672;23.356;2024-03-08T00:13:05;6.85;;;3.95;;
86412;SDS011;77065;42.672;23.356;2024-03-08T00:15:31;8.40;;;3.97;;
86412;SDS011;77065;42.672;23.356;2024-03-08T00:17:57;5.88;;;3.58;;
86412;SDS011;77065;42.672;23.356;2024-03-08T00:20:23;6.15;;;3.85;;
86412;SDS011;77065;42.672;23.356;2024-03-08T00:22:48;7.28;;;3.22;;
86412;SDS011;77065;42.672;23.356;2024-03-08T00:25:14;4.93;;;2.70;;
86412;SDS011;77065;42.672;23.356;2024-03-08T00:27:40;5.18;;;2.80;;
86412;SDS011;77065;42.672;23.356;2024-03-08T00:30:08;6.65;;;3.78;;
86412;SDS011;77065;42.672;23.356;2024-03-08T00:32:34;3.22;;;2.67;;
86412;SDS011;77065;42.672;23.356;2024-03-08T00:35:01;4.90;;;2.78;;
86412;SDS011;77065;42.672;23.356;2024-03-08T00:37:26;4.05;;;2.78;;
86412;SDS011;77065;42.672;23.356;2024-03-08T00:39:52;4.32;;;2.72;;
86412;SDS011;77065;42.672;23.356;2024-03-08T00:42:18;5.97;;;2.85;;
86412;SDS011;77065;42.672;23.356;2024-03-08T00:44:44;5.35;;;2.70;;
86412;SDS011;77065;42.672;23.356;2024-03-08T00:47:10;4.82;;;2.75;;
86412;SDS011;77065;42.672;23.356;2024-03-08T00:49:36;5.35;;;2.80;;
86412;SDS011;77065;42.672;23.356;2024-03-08T00:52:03;5.93;;;3.05;;
86412;SDS011;77065;42.672;23.356;2024-03-08T00:54:32;3.80;;;2.53;;
86412;SDS011;77065;42.672;23.356;2024-03-08T00:56:57;1.92;;;1.50;;
86412;SDS011;77065;42.672;23.356;2024-03-08T00:59:23;2.15;;;1.42;;
86412;SDS011;77065;42.672;23.356;2024-03-08T01:01:48;1.85;;;1.35;;
86412;SDS011;77065;42.672;23.356;2024-03-08T01:04:14;1.65;;;1.30;;
86412;SDS011;77065;42.672;23.356;2024-03-08T01:06:39;1.90;;;1.20;;
86412;SDS011;77065;42.672;23.356;2024-03-08T01:09:05;1.27;;;1.17;;
86412;SDS011;77065;42.672;23.356;2024-03-08T01:11:32;1.63;;;1.52;;
86412;SDS011;77065;42.672;23.356;2024-03-08T01:13:59;1.83;;;1.40;;
86412;SDS011;77065;42.672;23.356;2024-03-08T01:16:24;1.70;;;1.60;;
86412;SDS011;77065;42.672;23.356;2024-03-08T01:18:49;2.50;;;1.23;;
86412;SDS011;77065;42.672;23.356;2024-03-08T01:21:15;1.52;;;1.42;;
86412;SDS011;77065;42.672;23.356;2024-03-08T01:23:40;1.95;;;1.10;;
86412;SDS011;77065;42.672;23.356;2024-03-08T01:26:06;1.38;;;1.00;;
86412;SDS011;77065;42.672;23.356;2024-03-08T01:28:31;1.65;;;1.55;;
86412;SDS011;77065;42.672;23.356;2024-03-08T01:30:59;1.67;;;1.40;;
86412;SDS011;77065;42.672;23.356;2024-03-08T01:33:25;2.25;;;1.90;;
86412;SDS011;77065;42.672;23.356;2024-03-08T01:35:52;2.45;;;1.98;;
86412;SDS011;77065;42.672;23.356;2024-03-08T01:38:18;2.60;;;2.00;;
86412;SDS011;77065;42.672;23.356;2024-03-08T01:40:44;2.75;;;1.27;;
86412;SDS011;77065;42.672;23.356;2024-03-08T01:43:19;1.67;;;1.40;;
86412;SDS011;77065;42.672;23.356;2024-03-08T01:45:46;1.60;;;1.50;;
86412;SDS011;77065;42.672;23.356;2024-03-08T01:48:12;2.03;;;1.80;;
86412;SDS011;77065;42.672;23.356;2024-03-08T01:50:38;3.58;;;2.05;;
86412;SDS011;77065;42.672;23.356;2024-03-08T01:53:04;2.72;;;1.45;;
86412;SDS011;77065;42.672;23.356;2024-03-08T01:55:31;2.47;;;1.63;;
86412;SDS011;77065;42.672;23.356;2024-03-08T01:57:57;2.22;;;1.48;;
86412;SDS011;77065;42.672;23.356;2024-03-08T02:00:24;1.60;;;1.50;;
86412;SDS011;77065;42.672;23.356;2024-03-08T02:02:51;1.70;;;1.60;;
86412;SDS011;77065;42.672;23.356;2024-03-08T02:05:19;3.20;;;1.83;;
86412;SDS011;77065;42.672;23.356;2024-03-08T02:07:45;1.50;;;1.40;;
86412;SDS011;77065;42.672;23.356;2024-03-08T02:10:11;2.28;;;1.58;;
86412;SDS011;77065;42.672;23.356;2024-03-08T02:12:37;1.80;;;1.35;;
86412;SDS011;77065;42.672;23.356;2024-03-08T02:15:03;2.20;;;1.92;;
86412;SDS011;77065;42.672;23.356;2024-03-08T02:17:31;1.40;;;1.30;;
86412;SDS011;77065;42.672;23.356;2024-03-08T02:19:58;1.90;;;1.70;;
86412;SDS011;77065;42.672;23.356;2024-03-08T02:22:26;1.70;;;1.60;;
86412;SDS011;77065;42.672;23.356;2024-03-08T02:24:53;1.63;;;1.52;;
86412;SDS011;77065;42.672;23.356;2024-03-08T02:27:26;1.23;;;1.13;;
86412;SDS011;77065;42.672;23.356;2024-03-08T02:29:53;1.67;;;1.48;;
86412;SDS011;77065;42.672;23.356;2024-03-08T02:32:25;1.80;;;1.58;;
86412;SDS011;77065;42.672;23.356;2024-03-08T02:34:51;1.42;;;1.33;;
86412;SDS011;77065;42.672;23.356;2024-03-08T02:37:16;1.70;;;1.35;;
86412;SDS011;77065;42.672;23.356;2024-03-08T02:39:43;1.80;;;1.70;;
86412;SDS011;77065;42.672;23.356;2024-03-08T02:42:08;2.20;;;1.65;;
86412;SDS011;77065;42.672;23.356;2024-03-08T02:44:34;2.10;;;1.90;;
86412;SDS011;77065;42.672;23.356;2024-03-08T02:46:59;2.15;;;1.80;;
86412;SDS011;77065;42.672;23.356;2024-03-08T02:49:28;1.95;;;1.75;;
86412;SDS011;77065;42.672;23.356;2024-03-08T02:51:54;1.90;;;1.70;;
86412;SDS011;77065;42.672;23.356;2024-03-08T02:54:22;1.85;;;1.42;;
86412;SDS011;77065;42.672;23.356;2024-03-08T02:56:49;1.45;;;1.00;;
86412;SDS011;77065;42.672;23.356;2024-03-08T02:59:17;1.40;;;1.30;;
86412;SDS011;77065;42.672;23.356;2024-03-08T03:01:45;1.70;;;1.60;;
86412;SDS011;77065;42.672;23.356;2024-03-08T03:04:10;0.73;;;0.73;;
86412;SDS011;77065;42.672;23.356;2024-03-08T03:06:36;1.50;;;1.35;;
86412;SDS011;77065;42.672;23.356;2024-03-08T03:09:02;1.17;;;1.13;;
86412;SDS011;77065;42.672;23.356;2024-03-08T03:11:27;2.55;;;0.70;;
86412;SDS011;77065;42.672;23.356;2024-03-08T03:13:53;1.30;;;1.10;;
86412;SDS011;77065;42.672;23.356;2024-03-08T03:16:19;0.85;;;0.82;;
86412;SDS011;77065;42.672;23.356;2024-03-08T03:18:45;0.63;;;0.47;;
86412;SDS011;77065;42.672;23.356;2024-03-08T03:21:11;0.60;;;0.60;;
86412;SDS011;77065;42.672;23.356;2024-03-08T03:23:38;1.58;;;0.90;;
86412;SDS011;77065;42.672;23.356;2024-03-08T03:26:05;1.10;;;1.10;;
86412;SDS011;77065;42.672;23.356;2024-03-08T03:28:33;0.95;;;0.95;;
86412;SDS011;77065;42.672;23.356;2024-03-08T03:30:59;0.80;;;0.65;;
86412;SDS011;77065;42.672;23.356;2024-03-08T03:33:25;0.90;;;0.90;;
86412;SDS011;77065;42.672;23.356;2024-03-08T03:35:51;1.00;;;1.00;;
86412;SDS011;77065;42.672;23.356;2024-03-08T03:38:19;0.82;;;0.70;;
86412;SDS011;77065;42.672;23.356;2024-03-08T03:40:48;0.85;;;0.68;;
86412;SDS011;77065;42.672;23.356;2024-03-08T03:43:17;0.73;;;0.73;;
86412;SDS011;77065;42.672;23.356;2024-03-08T03:45:43;1.40;;;1.30;;
86412;SDS011;77065;42.672;23.356;2024-03-08T03:48:08;1.35;;;0.85;;
86412;SDS011;77065;42.672;23.356;2024-03-08T03:50:34;2.03;;;1.10;;
86412;SDS011;77065;42.672;23.356;2024-03-08T03:53:00;2.00;;;1.88;;
86412;SDS011;77065;42.672;23.356;2024-03-08T03:55:27;1.20;;;1.10;;
86412;SDS011;77065;42.672;23.356;2024-03-08T03:57:53;1.60;;;1.30;;
86412;SDS011;77065;42.672;23.356;2024-03-08T04:00:19;0.80;;;0.80;;
86412;SDS011;77065;42.672;23.356;2024-03-08T04:02:45;1.27;;;0.93;;
86412;SDS011;77065;42.672;23.356;2024-03-08T04:05:11;2.13;;;1.23;;
86412;SDS011;77065;42.672;23.356;2024-03-08T04:07:37;0.95;;;0.90;;
86412;SDS011;77065;42.672;23.356;2024-03-08T04:10:04;1.63;;;1.13;;
86412;SDS011;77065;42.672;23.356;2024-03-08T04:12:33;1.60;;;1.17;;
86412;SDS011;77065;42.672;23.356;2024-03-08T04:14:59;0.80;;;0.80;;
86412;SDS011;77065;42.672;23.356;2024-03-08T04:17:24;1.00;;;0.85;;
86412;SDS011;77065;42.672;23.356;2024-03-08T04:19:50;0.80;;;0.80;;
86412;SDS011;77065;42.672;23.356;2024-03-08T04:22:16;1.25;;;1.17;;
86412;SDS011;77065;42.672;23.356;2024-03-08T04:24:42;0.82;;;0.80;;
86412;SDS011;77065;42.672;23.356;2024-03-08T04:27:09;1.70;;;1.60;;
86412;SDS011;77065;42.672;23.356;2024-03-08T04:29:34;2.03;;;1.30;;
86412;SDS011;77065;42.672;23.356;2024-03-08T04:32:00;2.22;;;1.27;;
86412;SDS011;77065;42.672;23.356;2024-03-08T04:34:28;1.85;;;1.25;;
86412;SDS011;77065;42.672;23.356;2024-03-08T04:36:54;1.50;;;1.20;;
86412;SDS011;77065;42.672;23.356;2024-03-08T04:39:22;1.40;;;1.30;;
86412;SDS011;77065;42.672;23.356;2024-03-08T04:41:47;6.05;;;1.35;;
86412;SDS011;77065;42.672;23.356;2024-03-08T04:44:14;1.83;;;1.25;;
86412;SDS011;77065;42.672;23.356;2024-03-08T04:46:39;1.70;;;1.30;;
86412;SDS011;77065;42.672;23.356;2024-03-08T04:49:05;1.55;;;1.45;;
86412;SDS011;77065;42.672;23.356;2024-03-08T04:51:32;2.85;;;1.52;;
86412;SDS011;77065;42.672;23.356;2024-03-08T04:53:58;1.70;;;1.58;;
86412;SDS011;77065;42.672;23.356;2024-03-08T04:56:24;1.67;;;1.30;;
86412;SDS011;77065;42.672;23.356;2024-03-08T04:58:50;1.60;;;1.50;;
86412;SDS011;77065;42.672;23.356;2024-03-08T05:01:16;2.72;;;1.88;;
86412;SDS011;77065;42.672;23.356;2024-03-08T05:03:41;1.52;;;1.42;;
86412;SDS011;77065;42.672;23.356;2024-03-08T05:06:07;1.90;;;1.70;;
86412;SDS011;77065;42.672;23.356;2024-03-08T05:08:33;2.40;;;1.52;;
86412;SDS011;77065;42.672;23.356;2024-03-08T05:10:59;2.13;;;1.48;;
86412;SDS011;77065;42.672;23.356;2024-03-08T05:13:28;2.45;;;2.20;;
86412;SDS011;77065;42.672;23.356;2024-03-08T05:15:55;3.28;;;1.85;;
86412;SDS011;77065;42.672;23.356;2024-03-08T05:18:23;2.30;;;2.10;;
86412;SDS011;77065;42.672;23.356;2024-03-08T05:20:49;2.50;;;2.30;;
86412;SDS011;77065;42.672;23.356;2024-03-08T05:23:15;2.22;;;1.83;;
86412;SDS011;77065;42.672;23.356;2024-03-08T05:25:40;2.58;;;2.38;;
86412;SDS011;77065;42.672;23.356;2024-03-08T05:28:06;2.17;;;2.03;;
86412;SDS011;77065;42.672;23.356;2024-03-08T05:30:32;2.88;;;2.15;;
86412;SDS011;77065;42.672;23.356;2024-03-08T05:32:57;2.10;;;2.00;;
86412;SDS011;77065;42.672;23.356;2024-03-08T05:37:49;2.60;;;1.88;;
86412;SDS011;77065;42.672;23.356;2024-03-08T05:40:15;2.70;;;2.13;;
86412;SDS011;77065;42.672;23.356;2024-03-08T05:42:41;2.65;;;2.13;;
86412;SDS011;77065;42.672;23.356;2024-03-08T05:45:07;3.08;;;2.88;;
86412;SDS011;77065;42.672;23.356;2024-03-08T05:47:32;4.95;;;3.50;;
86412;SDS011;77065;42.672;23.356;2024-03-08T05:49:58;4.50;;;2.80;;
86412;SDS011;77065;42.672;23.356;2024-03-08T05:52:24;6.05;;;3.20;;
86412;SDS011;77065;42.672;23.356;2024-03-08T05:54:51;5.68;;;3.47;;
86412;SDS011;77065;42.672;23.356;2024-03-08T05:57:16;5.32;;;3.50;;
86412;SDS011;77065;42.672;23.356;2024-03-08T05:59:42;6.65;;;3.75;;
86412;SDS011;77065;42.672;23.356;2024-03-08T06:02:07;7.70;;;3.83;;
86412;SDS011;77065;42.672;23.356;2024-03-08T06:04:33;5.82;;;3.47;;
86412;SDS011;77065;42.672;23.356;2024-03-08T06:06:58;5.50;;;3.13;;
86412;SDS011;77065;42.672;23.356;2024-03-08T06:09:24;7.40;;;4.15;;
86412;SDS011;77065;42.672;23.356;2024-03-08T06:11:51;7.72;;;4.30;;
86412;SDS011;77065;42.672;23.356;2024-03-08T06:14:17;7.20;;;4.13;;
86412;SDS011;77065;42.672;23.356;2024-03-08T06:19:09;7.75;;;4.40;;
86412;SDS011;77065;42.672;23.356;2024-03-08T06:21:36;8.05;;;4.28;;
86412;SDS011;77065;42.672;23.356;2024-03-08T06:24:01;11.63;;;6.20;;
86412;SDS011;77065;42.672;23.356;2024-03-08T06:26:27;7.93;;;5.15;;
86412;SDS011;77065;42.672;23.356;2024-03-08T06:28:55;12.82;;;6.85;;
86412;SDS011;77065;42.672;23.356;2024-03-08T06:31:21;12.30;;;6.05;;
86412;SDS011;77065;42.672;23.356;2024-03-08T06:33:47;8.27;;;5.32;;
86412;SDS011;77065;42.672;23.356;2024-03-08T06:36:17;9.15;;;4.65;;
86412;SDS011;77065;42.672;23.356;2024-03-08T06:38:49;12.30;;;5.70;;
86412;SDS011;77065;42.672;23.356;2024-03-08T06:41:15;8.68;;;5.00;;
86412;SDS011;77065;42.672;23.356;2024-03-08T06:43:47;6.30;;;3.80;;
86412;SDS011;77065;42.672;23.356;2024-03-08T06:46:17;5.25;;;3.70;;
86412;SDS011;77065;42.672;23.356;2024-03-08T06:48:43;5.07;;;2.95;;
86412;SDS011;77065;42.672;23.356;2024-03-08T06:51:10;5.28;;;3.60;;
86412;SDS011;77065;42.672;23.356;2024-03-08T06:53:36;3.53;;;2.60;;
86412;SDS011;77065;42.672;23.356;2024-03-08T06:56:02;4.90;;;2.88;;
86412;SDS011;77065;42.672;23.356;2024-03-08T06:58:28;4.75;;;3.20;;
86412;SDS011;77065;42.672;23.356;2024-03-08T07:00:53;6.35;;;3.83;;
86412;SDS011;77065;42.672;23.356;2024-03-08T07:03:20;5.05;;;3.33;;
86412;SDS011;77065;42.672;23.356;2024-03-08T07:05:47;4.55;;;3.47;;
86412;SDS011;77065;42.672;23.356;2024-03-08T07:08:12;4.88;;;3.20;;
86412;SDS011;77065;42.672;23.356;2024-03-08T07:10:39;3.38;;;3.05;;
86412;SDS011;77065;42.672;23.356;2024-03-08T07:13:07;5.45;;;3.72;;
86412;SDS011;77065;42.672;23.356;2024-03-08T07:15:32;3.53;;;3.22;;
86412;SDS011;77065;42.672;23.356;2024-03-08T07:17:58;5.15;;;4.07;;
86412;SDS011;77065;42.672;23.356;2024-03-08T07:20:25;5.25;;;3.88;;
86412;SDS011;77065;42.672;23.356;2024-03-08T07:22:50;3.72;;;3.25;;
86412;SDS011;77065;42.672;23.356;2024-03-08T07:25:16;5.82;;;3.60;;
86412;SDS011;77065;42.672;23.356;2024-03-08T07:27:49;5.28;;;3.58;;
86412;SDS011;77065;42.672;23.356;2024-03-08T07:30:18;6.50;;;4.00;;
86412;SDS011;77065;42.672;23.356;2024-03-08T07:33:04;6.15;;;4.03;;
86412;SDS011;77065;42.672;23.356;2024-03-08T07:35:31;6.05;;;3.97;;
86412;SDS011;77065;42.672;23.356;2024-03-08T07:37:57;5.70;;;4.13;;
86412;SDS011;77065;42.672;23.356;2024-03-08T07:40:24;5.35;;;3.70;;
86412;SDS011;77065;42.672;23.356;2024-03-08T07:42:50;6.03;;;3.60;;
86412;SDS011;77065;42.672;23.356;2024-03-08T07:45:16;5.10;;;3.38;;
86412;SDS011;77065;42.672;23.356;2024-03-08T07:47:42;4.72;;;2.80;;
86412;SDS011;77065;42.672;23.356;2024-03-08T07:50:08;4.10;;;3.30;;
86412;SDS011;77065;42.672;23.356;2024-03-08T07:52:34;3.97;;;3.28;;
86412;SDS011;77065;42.672;23.356;2024-03-08T07:55:01;4.93;;;3.00;;
86412;SDS011;77065;42.672;23.356;2024-03-08T07:57:27;5.20;;;3.50;;
86412;SDS011;77065;42.672;23.356;2024-03-08T07:59:52;4.60;;;3.25;;
86412;SDS011;77065;42.672;23.356;2024-03-08T08:02:17;5.32;;;3.03;;
86412;SDS011;77065;42.672;23.356;2024-03-08T08:04:43;5.50;;;3.47;;
86412;SDS011;77065;42.672;23.356;2024-03-08T08:07:10;4.45;;;2.90;;
86412;SDS011;77065;42.672;23.356;2024-03-08T08:09:35;3.88;;;3.17;;
86412;SDS011;77065;42.672;23.356;2024-03-08T08:12:02;14.07;;;6.45;;
86412;SDS011;77065;42.672;23.356;2024-03-08T08:14:28;3.72;;;3.30;;
86412;SDS011;77065;42.672;23.356;2024-03-08T08:16:54;4.60;;;3.20;;
86412;SDS011;77065;42.672;23.356;2024-03-08T08:19:21;3.65;;;2.83;;
86412;SDS011;77065;42.672;23.356;2024-03-08T08:21:46;5.00;;;2.55;;
86412;SDS011;77065;42.672;23.356;2024-03-08T08:24:12;6.57;;;3.45;;
86412;SDS011;77065;42.672;23.356;2024-03-08T08:26:37;6.60;;;3.50;;
86412;SDS011;77065;42.672;23.356;2024-03-08T08:29:03;4.38;;;2.72;;
86412;SDS011;77065;42.672;23.356;2024-03-08T08:31:28;4.45;;;2.88;;
86412;SDS011;77065;42.672;23.356;2024-03-08T08:33:54;3.92;;;2.58;;
86412;SDS011;77065;42.672;23.356;2024-03-08T08:36:23;3.58;;;2.78;;
86412;SDS011;77065;42.672;23.356;2024-03-08T08:38:54;2.85;;;2.55;;
86412;SDS011;77065;42.672;23.356;2024-03-08T08:43:47;3.15;;;2.85;;
86412;SDS011;77065;42.672;23.356;2024-03-08T08:46:16;3.15;;;2.85;;
86412;SDS011;77065;42.672;23.356;2024-03-08T08:48:42;3.22;;;2.22;;
86412;SDS011;77065;42.672;23.356;2024-03-08T08:51:10;2.75;;;2.28;;
86412;SDS011;77065;42.672;23.356;2024-03-08T08:53:39;2.85;;;2.28;;
86412;SDS011;77065;42.672;23.356;2024-03-08T08:56:14;5.95;;;2.20;;
86412;SDS011;77065;42.672;23.356;2024-03-08T08:58:41;2.90;;;2.60;;
86412;SDS011;77065;42.672;23.356;2024-03-08T09:01:09;2.53;;;2.28;;
86412;SDS011;77065;42.672;23.356;2024-03-08T09:03:38;2.08;;;1.88;;
86412;SDS011;77065;42.672;23.356;2024-03-08T09:06:07;3.55;;;2.47;;
86412;SDS011;77065;42.672;23.356;2024-03-08T09:08:41;3.53;;;2.83;;
86412;SDS011;77065;42.672;23.356;2024-03-08T09:11:07;3.00;;;2.70;;
86412;SDS011;77065;42.672;23.356;2024-03-08T09:13:32;3.13;;;2.63;;
86412;SDS011;77065;42.672;23.356;2024-03-08T09:16:04;2.45;;;2.25;;
86412;SDS011;77065;42.672;23.356;2024-03-08T09:18:30;2.58;;;2.38;;
86412;SDS011;77065;42.672;23.356;2024-03-08T09:20:57;2.65;;;2.10;;
86412;SDS011;77065;42.672;23.356;2024-03-08T09:23:25;3.10;;;2.65;;
86412;SDS011;77065;42.672;23.356;2024-03-08T09:25:55;3.33;;;2.25;;
86412;SDS011;77065;42.672;23.356;2024-03-08T09:28:24;3.38;;;2.60;;
86412;SDS011;77065;42.672;23.356;2024-03-08T09:30:51;2.72;;;2.53;;
86412;SDS011;77065;42.672;23.356;2024-03-08T09:33:17;2.78;;;2.58;;
86412;SDS011;77065;42.672;23.356;2024-03-08T09:35:45;2.38;;;2.17;;
86412;SDS011;77065;42.672;23.356;2024-03-08T09:38:14;2.70;;;2.47;;
86412;SDS011;77065;42.672;23.356;2024-03-08T09:40:43;2.90;;;2.22;;
86412;SDS011;77065;42.672;23.356;2024-03-08T09:43:11;2.17;;;1.98;;
86412;SDS011;77065;42.672;23.356;2024-03-08T09:45:38;3.72;;;2.50;;
86412;SDS011;77065;42.672;23.356;2024-03-08T09:48:10;2.13;;;1.88;;
86412;SDS011;77065;42.672;23.356;2024-03-08T09:50:37;2.72;;;2.53;;
86412;SDS011;77065;42.672;23.356;2024-03-08T09:53:03;3.00;;;2.70;;
86412;SDS011;77065;42.672;23.356;2024-03-08T09:55:34;2.40;;;2.20;;
86412;SDS011;77065;42.672;23.356;2024-03-08T09:58:07;2.13;;;2.03;;
86412;SDS011;77065;42.672;23.356;2024-03-08T10:00:53;6.00;;;1.90;;
86412;SDS011;77065;42.672;23.356;2024-03-08T10:03:19;1.80;;;1.70;;
86412;SDS011;77065;42.672;23.356;2024-03-08T10:05:45;2.40;;;2.20;;
86412;SDS011;77065;42.672;23.356;2024-03-08T10:08:11;2.40;;;2.20;;
86412;SDS011;77065;42.672;23.356;2024-03-08T10:10:38;2.10;;;1.95;;
86412;SDS011;77065;42.672;23.356;2024-03-08T10:13:06;2.10;;;1.90;;
86412;SDS011;77065;42.672;23.356;2024-03-08T10:15:32;2.22;;;2.03;;
86412;SDS011;77065;42.672;23.356;2024-03-08T10:18:00;3.50;;;2.03;;
86412;SDS011;77065;42.672;23.356;2024-03-08T10:20:30;2.53;;;1.98;;
86412;SDS011;77065;42.672;23.356;2024-03-08T10:22:59;2.55;;;1.98;;
86412;SDS011;77065;42.672;23.356;2024-03-08T10:25:30;1.92;;;1.80;;
86412;SDS011;77065;42.672;23.356;2024-03-08T10:27:56;1.95;;;1.73;;
86412;SDS011;77065;42.672;23.356;2024-03-08T10:30:22;5.35;;;2.88;;
86412;SDS011;77065;42.672;23.356;2024-03-08T10:32:48;7.22;;;3.10;;
86412;SDS011;77065;42.672;23.356;2024-03-08T10:35:14;1.70;;;1.58;;
86412;SDS011;77065;42.672;23.356;2024-03-08T10:37:46;1.67;;;1.58;;
86412;SDS011;77065;42.672;23.356;2024-03-08T10:40:18;2.63;;;1.65;;
86412;SDS011;77065;42.672;23.356;2024-03-08T10:42:57;1.83;;;1.73;;
86412;SDS011;77065;42.672;23.356;2024-03-08T10:51:08;2.35;;;1.90;;
86412;SDS011;77065;42.672;23.356;2024-03-08T10:53:36;1.88;;;1.77;;
86412;SDS011;77065;42.672;23.356;2024-03-08T10:56:06;1.77;;;1.67;;
86412;SDS011;77065;42.672;23.356;2024-03-08T10:58:33;1.60;;;1.50;;
86412;SDS011;77065;42.672;23.356;2024-03-08T11:01:01;1.73;;;1.63;;
86412;SDS011;77065;42.672;23.356;2024-03-08T11:06:13;1.77;;;1.67;;
86412;SDS011;77065;42.672;23.356;2024-03-08T11:08:40;5.97;;;1.90;;
86412;SDS011;77065;42.672;23.356;2024-03-08T11:11:05;1.77;;;1.67;;
86412;SDS011;77065;42.672;23.356;2024-03-08T11:13:52;1.58;;;1.48;;
86412;SDS011;77065;42.672;23.356;2024-03-08T11:18:53;1.65;;;1.55;;
86412;SDS011;77065;42.672;23.356;2024-03-08T11:21:19;2.90;;;1.63;;
86412;SDS011;77065;42.672;23.356;2024-03-08T11:23:58;1.80;;;1.13;;
86412;SDS011;77065;42.672;23.356;2024-03-08T11:26:25;1.70;;;1.58;;
86412;SDS011;77065;42.672;23.356;2024-03-08T11:28:50;1.73;;;1.63;;
86412;SDS011;77065;42.672;23.356;2024-03-08T11:33:46;1.60;;;1.50;;
86412;SDS011;77065;42.672;23.356;2024-03-08T11:36:19;2.35;;;1.20;;
86412;SDS011;77065;42.672;23.356;2024-03-08T11:38:47;1.70;;;1.60;;
86412;SDS011;77065;42.672;23.356;2024-03-08T11:41:23;2.30;;;2.20;;
86412;SDS011;77065;42.672;23.356;2024-03-08T11:43:49;1.45;;;1.35;;
86412;SDS011;77065;42.672;23.356;2024-03-08T11:46:26;1.58;;;1.48;;
86412;SDS011;77065;42.672;23.356;2024-03-08T11:51:20;1.55;;;1.45;;
86412;SDS011;77065;42.672;23.356;2024-03-08T11:53:46;1.88;;;1.70;;
86412;SDS011;77065;42.672;23.356;2024-03-08T11:56:17;2.60;;;1.88;;
86412;SDS011;77065;42.672;23.356;2024-03-08T11:58:52;1.50;;;1.40;;
86412;SDS011;77065;42.672;23.356;2024-03-08T12:01:21;1.42;;;1.38;;
86412;SDS011;77065;42.672;23.356;2024-03-08T12:03:55;1.58;;;1.48;;
86412;SDS011;77065;42.672;23.356;2024-03-08T12:06:25;1.40;;;1.30;;
86412;SDS011;77065;42.672;23.356;2024-03-08T12:08:52;1.40;;;1.30;;
86412;SDS011;77065;42.672;23.356;2024-03-08T12:11:18;2.22;;;1.60;;
86412;SDS011;77065;42.672;23.356;2024-03-08T12:13:48;1.42;;;1.35;;
86412;SDS011;77065;42.672;23.356;2024-03-08T12:16:15;1.70;;;1.60;;
86412;SDS011;77065;42.672;23.356;2024-03-08T12:18:43;1.55;;;1.33;;
86412;SDS011;77065;42.672;23.356;2024-03-08T12:21:10;1.50;;;1.40;;
86412;SDS011;77065;42.672;23.356;2024-03-08T12:23:37;2.28;;;1.40;;
86412;SDS011;77065;42.672;23.356;2024-03-08T12:28:38;1.52;;;1.42;;
86412;SDS011;77065;42.672;23.356;2024-03-08T12:31:04;1.58;;;1.35;;
86412;SDS011;77065;42.672;23.356;2024-03-08T12:33:54;1.60;;;1.50;;
86412;SDS011;77065;42.672;23.356;2024-03-08T12:36:24;1.75;;;1.50;;
86412;SDS011;77065;42.672;23.356;2024-03-08T12:38:50;1.58;;;1.48;;
86412;SDS011;77065;42.672;23.356;2024-03-08T12:41:16;1.73;;;1.63;;
86412;SDS011;77065;42.672;23.356;2024-03-08T12:43:47;1.60;;;1.50;;
86412;SDS011;77065;42.672;23.356;2024-03-08T12:46:19;1.42;;;1.33;;
86412;SDS011;77065;42.672;23.356;2024-03-08T12:48:51;2.15;;;1.33;;
86412;SDS011;77065;42.672;23.356;2024-03-08T12:51:18;2.75;;;1.50;;
86412;SDS011;77065;42.672;23.356;2024-03-08T12:53:45;2.63;;;1.50;;
86412;SDS011;77065;42.672;23.356;2024-03-08T12:56:12;2.75;;;1.15;;
86412;SDS011;77065;42.672;23.356;2024-03-08T12:58:57;1.60;;;1.50;;
86412;SDS011;77065;42.672;23.356;2024-03-08T13:01:23;1.25;;;1.20;;
86412;SDS011;77065;42.672;23.356;2024-03-08T13:03:48;2.72;;;1.50;;
86412;SDS011;77065;42.672;23.356;2024-03-08T13:06:17;1.67;;;1.58;;
86412;SDS011;77065;42.672;23.356;2024-03-08T13:08:44;1.50;;;1.40;;
86412;SDS011;77065;42.672;23.356;2024-03-08T13:11:10;1.60;;;1.50;;
86412;SDS011;77065;42.672;23.356;2024-03-08T13:13:42;1.50;;;1.40;;
86412;SDS011;77065;42.672;23.356;2024-03-08T13:16:09;1.38;;;1.27;;
86412;SDS011;77065;42.672;23.356;2024-03-08T13:18:36;1.73;;;1.63;;
86412;SDS011;77065;42.672;23.356;2024-03-08T13:21:01;1.20;;;1.20;;
86412;SDS011;77065;42.672;23.356;2024-03-08T13:23:32;1.25;;;1.17;;
86412;SDS011;77065;42.672;23.356;2024-03-08T13:25:58;1.45;;;1.35;;
86412;SDS011;77065;42.672;23.356;2024-03-08T13:28:24;1.73;;;1.63;;
86412;SDS011;77065;42.672;23.356;2024-03-08T13:30:55;1.10;;;1.02;;
86412;SDS011;77065;42.672;23.356;2024-03-08T13:33:23;1.50;;;1.40;;
86412;SDS011;77065;42.672;23.356;2024-03-08T13:35:48;1.65;;;1.55;;
86412;SDS011;77065;42.672;23.356;2024-03-08T13:38:15;3.92;;;1.40;;
86412;SDS011;77065;42.672;23.356;2024-03-08T13:40:40;1.77;;;1.50;;
86412;SDS011;77065;42.672;23.356;2024-03-08T13:43:06;3.53;;;1.52;;
86412;SDS011;77065;42.672;23.356;2024-03-08T13:45:33;1.40;;;1.30;;
86412;SDS011;77065;42.672;23.356;2024-03-08T13:48:03;1.40;;;1.30;;
86412;SDS011;77065;42.672;23.356;2024-03-08T13:50:29;1.38;;;1.20;;
86412;SDS011;77065;42.672;23.356;2024-03-08T13:52:55;6.15;;;1.65;;
86412;SDS011;77065;42.672;23.356;2024-03-08T13:55:21;1.67;;;1.55;;
86412;SDS011;77065;42.672;23.356;2024-03-08T13:57:49;1.45;;;1.35;;
86412;SDS011;77065;42.672;23.356;2024-03-08T14:00:18;3.08;;;1.70;;
86412;SDS011;77065;42.672;23.356;2024-03-08T14:02:47;1.65;;;1.55;;
86412;SDS011;77065;42.672;23.356;2024-03-08T14:05:14;1.20;;;1.10;;
86412;SDS011;77065;42.672;23.356;2024-03-08T14:07:41;1.55;;;1.40;;
86412;SDS011;77065;42.672;23.356;2024-03-08T14:10:06;3.30;;;1.60;;
86412;SDS011;77065;42.672;23.356;2024-03-08T14:12:34;6.45;;;2.15;;
86412;SDS011;77065;42.672;23.356;2024-03-08T14:15:00;3.45;;;1.88;;
86412;SDS011;77065;42.672;23.356;2024-03-08T14:17:26;3.83;;;1.63;;
86412;SDS011;77065;42.672;23.356;2024-03-08T14:19:53;9.98;;;2.28;;
86412;SDS011;77065;42.672;23.356;2024-03-08T14:22:19;3.72;;;2.08;;
86412;SDS011;77065;42.672;23.356;2024-03-08T14:24:45;3.10;;;1.63;;
86412;SDS011;77065;42.672;23.356;2024-03-08T14:27:11;3.75;;;1.80;;
86412;SDS011;77065;42.672;23.356;2024-03-08T14:29:37;5.05;;;2.17;;
86412;SDS011;77065;42.672;23.356;2024-03-08T14:32:06;6.78;;;2.58;;
86412;SDS011;77065;42.672;23.356;2024-03-08T14:34:33;3.45;;;2.08;;
86412;SDS011;77065;42.672;23.356;2024-03-08T14:36:59;4.35;;;2.15;;
86412;SDS011;77065;42.672;23.356;2024-03-08T14:39:25;2.10;;;1.95;;
86412;SDS011;77065;42.672;23.356;2024-03-08T14:41:54;1.88;;;1.50;;
86412;SDS011;77065;42.672;23.356;2024-03-08T14:44:23;1.60;;;1.50;;
86412;SDS011;77065;42.672;23.356;2024-03-08T14:46:53;5.03;;;1.67;;
86412;SDS011;77065;42.672;23.356;2024-03-08T14:49:19;3.13;;;2.05;;
86412;SDS011;77065;42.672;23.356;2024-03-08T14:51:46;1.92;;;1.83;;
86412;SDS011;77065;42.672;23.356;2024-03-08T14:54:12;4.28;;;2.08;;
86412;SDS011;77065;42.672;23.356;2024-03-08T14:56:38;2.58;;;1.98;;
86412;SDS011;77065;42.672;23.356;2024-03-08T14:59:06;3.53;;;2.08;;